Time,TemperatureF,DewpointF,PressureIn,WindDirection,WindDirectionDegrees,WindSpeedMPH,WindSpeedGustMPH,Humidity,HourlyPrecipIn,Conditions,Clouds,dailyrainin,SoftwareType,DateUTC
2013-10-05 00:02:00,74.3,73.7,30.18,East,90,1.2,0.0,98,0.00,RA,SCT,0.00,WeatherDisplay:10.37,2013-10-05 05:02:00,
2013-10-05 00:07:00,74.5,73.9,30.18,East,90,0.0,0.0,98,0.00,SCT,,0.00,WeatherDisplay:10.37,2013-10-05 05:07:00,
2013-10-05 00:12:00,74.5,73.9,30.18,ESE,112,0.0,0.0,98,0.00,BKN,SCT,0.00,WeatherDisplay:10.37,2013-10-05 05:12:00,
2013-10-05 00:17:00,74.5,73.9,30.18,East,90,0.0,0.0,98,0.00,BKN,SCT,0.00,WeatherDisplay:10.37,2013-10-05 05:17:00,
2013-10-05 00:22:00,74.3,73.7,30.18,East,90,0.0,0.0,98,0.00,BKN,SCT,0.00,WeatherDisplay:10.37,2013-10-05 05:22:00,
2013-10-05 00:27:00,74.3,73.7,30.18,East,90,0.0,0.0,98,0.00,BKN,SCT,0.00,WeatherDisplay:10.37,2013-10-05 05:27:00,
2013-10-05 00:32:00,74.3,73.7,30.18,ESE,112,0.0,0.0,98,0.00,BKN,SCT,0.00,WeatherDisplay:10.37,2013-10-05 05:32:00,
2013-10-05 00:37:00,74.1,73.5,30.18,NE,45,0.0,0.0,98,0.00,BKN,SCT,0.00,WeatherDisplay:10.37,2013-10-05 05:37:00,
2013-10-05 00:42:00,74.1,73.5,30.18,NE,45,0.0,0.0,98,0.00,BKN,SCT,0.00,WeatherDisplay:10.37,2013-10-05 05:42:00,
2013-10-05 00:47:00,74.1,73.5,30.15,NE,45,0.0,0.0,98,0.00,BKN,SCT,0.00,WeatherDisplay:10.37,2013-10-05 05:47:00,
2013-10-05 00:52:00,74.1,73.5,30.15,NE,45,0.0,0.0,98,0.00,SCT,,0.00,WeatherDisplay:10.37,2013-10-05 05:52:00,
2013-10-05 00:57:00,73.9,73.3,30.15,ENE,68,0.0,0.0,98,0.00,SCT,,0.00,WeatherDisplay:10.37,2013-10-05 05:57:00,
2013-10-05 01:02:00,73.9,73.3,30.15,East,90,0.0,0.0,98,0.00,FEW,SCT,0.00,WeatherDisplay:10.37,2013-10-05 06:02:00,
2013-10-05 01:07:00,73.9,73.3,30.15,East,90,0.0,0.0,98,0.00,FEW,SCT,0.00,WeatherDisplay:10.37,2013-10-05 06:07:00,
2013-10-05 01:12:00,73.9,73.3,30.15,ENE,68,0.0,0.0,98,0.00,FEW,SCT,0.00,WeatherDisplay:10.37,2013-10-05 06:12:00,
2013-10-05 01:17:00,73.9,73.3,30.15,NNE,22,0.0,0.0,98,0.00,FEW,SCT,0.00,WeatherDisplay:10.37,2013-10-05 06:17:00,
2013-10-05 01:22:00,73.8,73.2,30.15,ENE,68,0.0,0.0,98,0.00,FEW,SCT,0.00,WeatherDisplay:10.37,2013-10-05 06:22:00,
2013-10-05 01:27:00,73.8,73.2,30.15,East,90,0.0,0.0,98,0.00,FEW,SCT,0.00,WeatherDisplay:10.37,2013-10-05 06:27:00,
2013-10-05 01:32:00,73.9,73.3,30.15,ENE,68,0.0,0.0,98,0.00,FEW,SCT,0.00,WeatherDisplay:10.37,2013-10-05 06:32:00,
2013-10-05 01:37:00,73.9,73.3,30.15,NE,45,0.0,0.0,98,0.00,FEW,SCT,0.00,WeatherDisplay:10.37,2013-10-05 06:37:00,
2013-10-05 01:42:00,73.9,73.3,30.15,ENE,68,0.0,0.0,98,0.00,FEW,SCT,0.00,WeatherDisplay:10.37,2013-10-05 06:42:00,
2013-10-05 01:47:00,73.9,73.3,30.12,East,90,0.0,0.0,98,0.00,FEW,SCT,0.00,WeatherDisplay:10.37,2013-10-05 06:47:00,
2013-10-05 01:52:00,73.9,73.3,30.12,ENE,68,0.0,0.0,98,0.00,FEW,SCT,0.00,WeatherDisplay:10.37,2013-10-05 06:52:00,
2013-10-05 01:57:00,73.9,73.3,30.12,ESE,112,0.0,0.0,98,0.00,FEW,SCT,0.00,WeatherDisplay:10.37,2013-10-05 06:57:00,
2013-10-05 02:02:00,73.9,73.3,30.15,East,90,0.0,0.0,98,0.00,CLR,SCT,0.00,WeatherDisplay:10.37,2013-10-05 07:02:00,
2013-10-05 02:07:00,73.9,73.3,30.15,ESE,112,0.0,0.0,98,0.00,CLR,SCT,0.00,WeatherDisplay:10.37,2013-10-05 07:07:00,
2013-10-05 02:12:00,73.9,73.3,30.15,East,90,0.0,0.0,98,0.00,CLR,SCT,0.00,WeatherDisplay:10.37,2013-10-05 07:12:00,
2013-10-05 02:17:00,73.9,73.3,30.15,NE,45,0.0,0.0,98,0.00,CLR,SCT,0.00,WeatherDisplay:10.37,2013-10-05 07:17:00,
2013-10-05 02:22:00,73.9,73.3,30.15,ESE,112,0.0,0.0,98,0.00,CLR,SCT,0.00,WeatherDisplay:10.37,2013-10-05 07:22:00,
2013-10-05 02:27:00,73.9,73.3,30.15,East,90,0.0,0.0,98,0.00,CLR,SCT,0.00,WeatherDisplay:10.37,2013-10-05 07:27:00,
2013-10-05 02:32:00,73.8,73.2,30.15,NE,45,1.4,0.0,98,0.00,CLR,SCT,0.00,WeatherDisplay:10.37,2013-10-05 07:32:00,
2013-10-05 02:37:00,73.8,73.2,30.15,NE,45,0.0,0.0,98,0.00,CLR,SCT,0.00,WeatherDisplay:10.37,2013-10-05 07:37:00,
2013-10-05 02:42:00,73.8,73.2,30.15,NE,45,0.0,0.0,98,0.00,CLR,SCT,0.00,WeatherDisplay:10.37,2013-10-05 07:42:00,
2013-10-05 02:47:00,73.8,73.2,30.15,NNE,22,2.3,2.3,98,0.00,CLR,SCT,0.00,WeatherDisplay:10.37,2013-10-05 07:47:00,
2013-10-05 02:52:00,73.9,73.3,30.15,East,90,0.0,0.0,98,0.00,CLR,SCT,0.00,WeatherDisplay:10.37,2013-10-05 07:52:00,
2013-10-05 02:57:00,73.9,73.3,30.15,East,90,0.0,0.0,98,0.00,CLR,SCT,0.00,WeatherDisplay:10.37,2013-10-05 07:57:00,
2013-10-05 03:02:00,73.8,73.2,30.15,East,90,0.0,0.0,98,0.00,FEW,SCT,0.00,WeatherDisplay:10.37,2013-10-05 08:02:00,
2013-10-05 03:07:00,73.8,73.2,30.15,NE,45,1.2,0.0,98,0.00,FEW,SCT,0.00,WeatherDisplay:10.37,2013-10-05 08:07:00,
2013-10-05 03:12:00,73.8,73.2,30.15,NE,45,0.0,0.0,98,0.00,FEW,SCT,0.00,WeatherDisplay:10.37,2013-10-05 08:12:00,
2013-10-05 03:17:00,73.8,73.2,30.15,East,90,1.2,0.0,98,0.00,FEW,SCT,0.00,WeatherDisplay:10.37,2013-10-05 08:17:00,
2013-10-05 03:22:00,73.8,73.2,30.15,East,90,0.0,0.0,98,0.00,FEW,SCT,0.00,WeatherDisplay:10.37,2013-10-05 08:22:00,
2013-10-05 03:27:00,73.8,73.2,30.15,ENE,68,0.0,0.0,98,0.00,FEW,SCT,0.00,WeatherDisplay:10.37,2013-10-05 08:27:00,
2013-10-05 03:32:00,73.8,73.2,30.15,East,90,0.0,0.0,98,0.00,FEW,SCT,0.00,WeatherDisplay:10.37,2013-10-05 08:32:00,
2013-10-05 03:37:00,73.8,73.2,30.15,East,90,0.0,0.0,98,0.00,FEW,SCT,0.00,WeatherDisplay:10.37,2013-10-05 08:37:00,
2013-10-05 03:42:00,73.8,73.2,30.15,NNE,22,1.2,0.0,98,0.00,FEW,SCT,0.00,WeatherDisplay:10.37,2013-10-05 08:42:00,
2013-10-05 03:47:00,73.8,73.2,30.15,ESE,112,0.0,0.0,98,0.00,FEW,SCT,0.00,WeatherDisplay:10.37,2013-10-05 08:47:00,
2013-10-05 03:52:00,73.8,73.2,30.15,East,90,0.0,0.0,98,0.00,BKN,SCT,0.00,WeatherDisplay:10.37,2013-10-05 08:52:00,
2013-10-05 03:57:00,73.6,73.0,30.15,East,90,0.0,0.0,98,0.00,BKN,SCT,0.00,WeatherDisplay:10.37,2013-10-05 08:57:00,
2013-10-05 04:02:00,73.6,73.0,30.15,East,90,0.0,0.0,98,0.00,SCT,,0.00,WeatherDisplay:10.37,2013-10-05 09:02:00,
2013-10-05 04:07:00,73.4,72.8,30.15,East,90,0.0,0.0,98,0.00,SCT,,0.00,WeatherDisplay:10.37,2013-10-05 09:07:00,
2013-10-05 04:12:00,73.4,72.8,30.15,ENE,68,0.0,0.0,98,0.00,SCT,,0.00,WeatherDisplay:10.37,2013-10-05 09:12:00,
2013-10-05 04:17:00,73.2,72.6,30.15,NE,45,0.0,0.0,98,0.00,SCT,,0.00,WeatherDisplay:10.37,2013-10-05 09:17:00,
2013-10-05 04:22:00,73.2,72.6,30.15,NE,45,0.0,0.0,98,0.00,SCT,,0.00,WeatherDisplay:10.37,2013-10-05 09:22:00,
2013-10-05 04:27:00,73.0,72.4,30.15,NE,45,0.0,0.0,98,0.00,SCT,,0.00,WeatherDisplay:10.37,2013-10-05 09:27:00,
2013-10-05 04:32:00,73.0,72.4,30.15,NE,45,0.0,0.0,98,0.00,SCT,,0.00,WeatherDisplay:10.37,2013-10-05 09:32:00,
2013-10-05 04:37:00,73.0,72.4,30.15,NE,45,0.0,0.0,98,0.00,SCT,,0.00,WeatherDisplay:10.37,2013-10-05 09:37:00,
2013-10-05 04:42:00,73.0,72.4,30.15,ESE,112,0.0,0.0,98,0.00,SCT,,0.00,WeatherDisplay:10.37,2013-10-05 09:42:00,
2013-10-05 04:47:00,73.2,72.6,30.15,ESE,112,0.0,0.0,98,0.00,SCT,,0.00,WeatherDisplay:10.37,2013-10-05 09:47:00,
2013-10-05 04:52:00,73.2,72.6,30.15,ESE,112,1.4,0.0,98,0.00,SCT,,0.00,WeatherDisplay:10.37,2013-10-05 09:52:00,
2013-10-05 04:57:00,73.2,72.6,30.15,ENE,68,1.2,0.0,98,0.00,SCT,,0.00,WeatherDisplay:10.37,2013-10-05 09:57:00,
2013-10-05 05:02:00,73.4,72.8,30.15,ENE,68,1.2,0.0,98,0.00,CLR,SCT,0.00,WeatherDisplay:10.37,2013-10-05 10:02:00,
2013-10-05 05:07:00,73.4,72.8,30.15,SE,135,1.2,1.2,98,0.00,CLR,SCT,0.00,WeatherDisplay:10.37,2013-10-05 10:07:00,
2013-10-05 05:12:00,73.4,72.8,30.15,East,90,0.0,0.0,98,0.00,CLR,SCT,0.00,WeatherDisplay:10.37,2013-10-05 10:12:00,
2013-10-05 05:17:00,73.4,72.8,30.15,East,90,0.0,0.0,98,0.00,CLR,SCT,0.00,WeatherDisplay:10.37,2013-10-05 10:17:00,
2013-10-05 05:22:00,73.4,72.8,30.15,East,90,0.0,0.0,98,0.00,CLR,SCT,0.00,WeatherDisplay:10.37,2013-10-05 10:22:00,
2013-10-05 05:27:00,73.4,72.8,30.12,ENE,68,1.2,0.0,98,0.00,CLR,SCT,0.00,WeatherDisplay:10.37,2013-10-05 10:27:00,
2013-10-05 05:32:00,73.4,72.8,30.12,East,90,0.0,0.0,98,0.00,CLR,SCT,0.00,WeatherDisplay:10.37,2013-10-05 10:32:00,
2013-10-05 05:37:00,73.4,72.8,30.12,East,90,0.0,0.0,98,0.00,CLR,SCT,0.00,WeatherDisplay:10.37,2013-10-05 10:37:00,
2013-10-05 05:42:00,73.4,72.8,30.15,East,90,0.0,0.0,98,0.00,CLR,SCT,0.00,WeatherDisplay:10.37,2013-10-05 10:42:00,
2013-10-05 05:45:00,80.1,71.0,30.09,ESE,105,3.0,7.0,74,0.00,CLR,SCT,0.00,WeatherDisplay:10.37,2013-10-05 10:45:00,
2013-10-05 05:47:00,73.4,72.8,30.15,East,90,1.2,0.0,98,0.00,CLR,SCT,0.00,WeatherDisplay:10.37,2013-10-05 10:47:00,
2013-10-05 05:52:00,73.4,72.8,30.15,NE,45,0.9,0.0,98,0.00,CLR,SCT,0.00,WeatherDisplay:10.37,2013-10-05 10:52:00,
2013-10-05 05:57:00,73.4,72.8,30.12,East,90,0.0,0.0,98,0.00,CLR,SCT,0.00,WeatherDisplay:10.37,2013-10-05 10:57:00,
2013-10-05 06:02:00,73.4,72.8,30.12,East,90,0.0,0.0,98,0.00,CLR,SCT,0.00,WeatherDisplay:10.37,2013-10-05 11:02:00,
2013-10-05 06:07:00,73.4,72.8,30.12,East,90,1.2,0.0,98,0.00,CLR,SCT,0.00,WeatherDisplay:10.37,2013-10-05 11:07:00,
2013-10-05 06:12:00,73.4,72.8,30.12,ESE,112,0.0,0.0,98,0.00,CLR,SCT,0.00,WeatherDisplay:10.37,2013-10-05 11:12:00,
2013-10-05 06:17:00,73.6,73.0,30.12,East,90,1.6,1.6,98,0.00,CLR,SCT,0.00,WeatherDisplay:10.37,2013-10-05 11:17:00,
2013-10-05 06:22:00,73.6,73.0,30.12,East,90,1.2,0.0,98,0.00,CLR,SCT,0.00,WeatherDisplay:10.37,2013-10-05 11:22:00,
2013-10-05 06:27:00,73.6,73.0,30.12,ENE,68,1.2,0.0,98,0.00,CLR,SCT,0.00,WeatherDisplay:10.37,2013-10-05 11:27:00,
2013-10-05 06:32:00,73.6,73.0,30.12,ENE,68,1.2,1.2,98,0.00,CLR,SCT,0.00,WeatherDisplay:10.37,2013-10-05 11:32:00,
2013-10-05 06:37:00,73.6,73.0,30.12,East,90,1.2,0.0,98,0.00,CLR,SCT,0.00,WeatherDisplay:10.37,2013-10-05 11:37:00,
2013-10-05 06:42:00,73.6,73.0,30.15,ENE,68,0.0,0.0,98,0.00,CLR,SCT,0.00,WeatherDisplay:10.37,2013-10-05 11:42:00,
2013-10-05 06:47:00,73.6,73.0,30.15,ENE,68,0.0,0.0,98,0.00,CLR,SCT,0.00,WeatherDisplay:10.37,2013-10-05 11:47:00,
2013-10-05 06:52:00,73.6,73.0,30.15,East,90,1.2,0.0,98,0.00,CLR,SCT,0.00,WeatherDisplay:10.37,2013-10-05 11:52:00,
2013-10-05 06:57:00,73.6,73.0,30.15,ENE,68,1.6,0.0,98,0.00,CLR,SCT,0.00,WeatherDisplay:10.37,2013-10-05 11:57:00,
2013-10-05 07:02:00,73.6,73.0,30.15,ENE,68,1.2,0.0,98,0.00,CLR,SCT,0.00,WeatherDisplay:10.37,2013-10-05 12:02:00,
2013-10-05 07:07:00,73.6,73.0,30.15,East,90,1.2,0.0,98,0.00,CLR,SCT,0.00,WeatherDisplay:10.37,2013-10-05 12:07:00,
2013-10-05 07:12:00,73.8,73.2,30.15,East,90,1.2,0.0,98,0.00,CLR,SCT,0.00,WeatherDisplay:10.37,2013-10-05 12:12:00,
2013-10-05 07:18:00,73.9,73.3,30.15,ENE,68,1.2,0.0,98,0.00,CLR,SCT,0.00,WeatherDisplay:10.37,2013-10-05 12:18:00,
2013-10-05 07:23:00,74.5,73.9,30.15,ENE,68,1.2,1.2,98,0.00,CLR,SCT,0.00,WeatherDisplay:10.37,2013-10-05 12:23:00,
2013-10-05 07:28:00,75.0,74.4,30.15,East,90,2.3,2.3,98,0.00,CLR,SCT,0.00,WeatherDisplay:10.37,2013-10-05 12:28:00,
2013-10-05 07:33:00,75.9,75.3,30.15,ENE,68,3.5,3.5,98,0.00,CLR,SCT,0.00,WeatherDisplay:10.37,2013-10-05 12:33:00,
2013-10-05 07:38:00,76.5,75.9,30.15,ENE,68,3.1,3.1,98,0.00,CLR,SCT,0.00,WeatherDisplay:10.37,2013-10-05 12:38:00,
2013-10-05 07:43:00,76.8,76.2,30.18,East,90,2.3,2.3,98,0.00,CLR,SCT,0.00,WeatherDisplay:10.37,2013-10-05 12:43:00,
2013-10-05 07:48:00,77.2,76.6,30.18,ESE,112,2.3,2.6,98,0.00,CLR,SCT,0.00,WeatherDisplay:10.37,2013-10-05 12:48:00,
2013-10-05 07:53:00,77.5,76.9,30.18,NE,45,2.3,2.3,98,0.00,CLR,SCT,0.00,WeatherDisplay:10.37,2013-10-05 12:53:00,
2013-10-05 07:58:00,77.9,77.3,30.15,East,90,2.3,2.4,98,0.00,CLR,SCT,0.00,WeatherDisplay:10.37,2013-10-05 12:58:00,
2013-10-05 08:03:00,78.3,77.6,30.15,East,90,2.9,2.9,98,0.00,CLR,SCT,0.00,WeatherDisplay:10.37,2013-10-05 13:03:00,
2013-10-05 08:08:00,78.8,77.9,30.15,SE,135,4.6,4.6,97,0.00,CLR,SCT,0.00,WeatherDisplay:10.37,2013-10-05 13:08:00,
2013-10-05 08:13:00,79.2,78.2,30.18,SE,135,3.5,3.5,97,0.00,CLR,SCT,0.00,WeatherDisplay:10.37,2013-10-05 13:13:00,
2013-10-05 08:18:00,79.7,78.5,30.18,ESE,112,3.1,3.1,96,0.00,CLR,SCT,0.00,WeatherDisplay:10.37,2013-10-05 13:18:00,
2013-10-05 08:23:00,79.9,78.6,30.18,East,90,3.5,3.5,96,0.00,CLR,SCT,0.00,WeatherDisplay:10.37,2013-10-05 13:23:00,
2013-10-05 08:28:00,80.8,79.2,30.18,ESE,112,3.8,3.8,95,0.00,CLR,SCT,0.00,WeatherDisplay:10.37,2013-10-05 13:28:00,
2013-10-05 08:33:00,81.9,80.0,30.18,NE,45,5.8,5.8,94,0.00,CLR,SCT,0.00,WeatherDisplay:10.37,2013-10-05 13:33:00,
2013-10-05 08:38:00,82.9,80.7,30.18,ESE,112,2.3,2.3,93,0.00,CLR,SCT,0.00,WeatherDisplay:10.37,2013-10-05 13:38:00,
2013-10-05 08:43:00,83.8,80.6,30.18,ENE,68,4.6,4.6,90,0.00,CLR,SCT,0.00,WeatherDisplay:10.37,2013-10-05 13:43:00,
2013-10-05 08:48:00,84.4,80.8,30.18,ESE,112,3.5,3.5,89,0.00,CLR,SCT,0.00,WeatherDisplay:10.37,2013-10-05 13:48:00,
2013-10-05 08:53:00,84.2,80.3,30.18,SE,135,4.6,4.6,88,0.00,CLR,SCT,0.00,WeatherDisplay:10.37,2013-10-05 13:53:00,
2013-10-05 09:12:00,84.6,79.5,30.18,ESE,112,4.2,4.2,85,0.00,CLR,SCT,0.00,WeatherDisplay:10.37,2013-10-05 14:12:00,
2013-10-05 09:17:00,83.5,79.5,30.18,NE,45,5.9,5.9,88,0.00,CLR,SCT,0.00,WeatherDisplay:10.37,2013-10-05 14:17:00,
2013-10-05 09:22:00,83.3,79.4,30.18,ESE,112,3.5,3.5,88,0.00,BKN,SCT,0.00,WeatherDisplay:10.37,2013-10-05 14:22:00,
2013-10-05 09:27:00,83.3,79.7,30.18,East,90,3.5,3.5,89,0.00,BKN,SCT,0.00,WeatherDisplay:10.37,2013-10-05 14:27:00,
2013-10-05 09:32:00,84.9,80.3,30.18,SSE,158,3.6,3.6,86,0.00,BKN,SCT,0.00,WeatherDisplay:10.37,2013-10-05 14:32:00,
2013-10-05 09:37:00,84.2,79.6,30.18,ESE,112,4.6,4.6,86,0.00,BKN,SCT,0.00,WeatherDisplay:10.37,2013-10-05 14:37:00,
2013-10-05 09:42:00,84.2,79.6,30.18,SE,135,3.5,3.5,86,0.00,BKN,SCT,0.00,WeatherDisplay:10.37,2013-10-05 14:42:00,
2013-10-05 09:47:00,86.0,79.5,30.18,SSE,158,5.8,5.8,81,0.00,BKN,SCT,0.00,WeatherDisplay:10.37,2013-10-05 14:47:00,
2013-10-05 09:52:00,86.0,79.5,30.18,East,90,6.4,6.4,81,0.00,BKN,SCT,0.00,WeatherDisplay:10.37,2013-10-05 14:52:00,
2013-10-05 09:57:00,85.3,78.8,30.18,East,90,5.6,5.6,81,0.00,BKN,SCT,0.00,WeatherDisplay:10.37,2013-10-05 14:57:00,
2013-10-05 10:02:00,84.7,77.9,30.18,SE,135,8.7,8.7,80,0.00,BKN,SCT,0.00,WeatherDisplay:10.37,2013-10-05 15:02:00,
2013-10-05 10:07:00,83.8,77.8,30.18,ENE,68,4.6,5.6,82,0.00,BKN,SCT,0.00,WeatherDisplay:10.37,2013-10-05 15:07:00,
2013-10-05 10:12:00,85.8,80.1,30.18,ENE,68,6.9,6.9,83,0.00,BKN,SCT,0.00,WeatherDisplay:10.37,2013-10-05 15:12:00,
2013-10-05 10:17:00,86.0,79.1,30.18,SE,135,5.8,5.8,80,0.00,BKN,SCT,0.00,WeatherDisplay:10.37,2013-10-05 15:17:00,
2013-10-05 10:22:00,85.1,77.1,30.18,SE,135,7.6,7.6,77,0.00,BKN,SCT,0.00,WeatherDisplay:10.37,2013-10-05 15:22:00,
2013-10-05 10:27:00,85.1,77.1,30.18,East,90,5.8,5.8,77,0.00,BKN,SCT,0.00,WeatherDisplay:10.37,2013-10-05 15:27:00,
2013-10-05 10:32:00,87.1,77.8,30.18,East,90,5.8,5.8,74,0.00,BKN,SCT,0.00,WeatherDisplay:10.37,2013-10-05 15:32:00,
2013-10-05 10:37:00,87.8,78.1,30.18,East,90,6.9,6.9,73,0.00,BKN,SCT,0.00,WeatherDisplay:10.37,2013-10-05 15:37:00,
2013-10-05 10:42:00,88.0,77.8,30.18,East,90,9.2,9.2,72,0.00,BKN,SCT,0.00,WeatherDisplay:10.37,2013-10-05 15:42:00,
2013-10-05 10:47:00,88.0,77.8,30.18,SE,135,6.9,6.9,72,0.00,BKN,SCT,0.00,WeatherDisplay:10.37,2013-10-05 15:47:00,
2013-10-05 10:52:00,87.6,77.9,30.18,SSE,158,4.9,4.9,73,0.00,BKN,SCT,0.00,WeatherDisplay:10.37,2013-10-05 15:52:00,
2013-10-05 10:57:00,88.5,78.3,30.18,East,90,3.5,3.5,72,0.00,BKN,SCT,0.00,WeatherDisplay:10.37,2013-10-05 15:57:00,
2013-10-05 11:02:00,88.2,77.6,30.18,ENE,68,8.1,8.1,71,0.00,BKN,SCT,0.00,WeatherDisplay:10.37,2013-10-05 16:02:00,
2013-10-05 11:07:00,88.3,77.7,30.18,South,180,8.1,8.1,71,0.00,BKN,SCT,0.00,WeatherDisplay:10.37,2013-10-05 16:07:00,
2013-10-05 11:12:00,88.0,77.0,30.18,SE,135,5.8,5.8,70,0.00,FEW,SCT,0.00,WeatherDisplay:10.37,2013-10-05 16:12:00,
2013-10-05 11:17:00,88.5,76.6,30.18,ESE,112,6.9,6.9,68,0.00,FEW,SCT,0.00,WeatherDisplay:10.37,2013-10-05 16:17:00,
2013-10-05 11:22:00,88.2,77.1,30.18,SSW,202,5.8,5.8,70,0.00,FEW,SCT,0.00,WeatherDisplay:10.37,2013-10-05 16:22:00,
2013-10-05 11:27:00,88.2,77.1,30.18,ESE,112,4.6,4.6,70,0.00,FEW,SCT,0.00,WeatherDisplay:10.37,2013-10-05 16:27:00,
2013-10-05 11:34:00,88.2,76.7,30.18,ESE,112,8.1,8.1,69,0.00,BKN,SCT,0.00,WeatherDisplay:10.37,2013-10-05 16:34:00,
2013-10-05 11:39:00,87.1,75.7,30.18,NE,45,5.8,5.8,69,0.00,BKN,SCT,0.00,WeatherDisplay:10.37,2013-10-05 16:39:00,
2013-10-05 11:44:00,88.5,77.5,30.18,SSE,158,3.3,3.3,70,0.00,BKN,SCT,0.00,WeatherDisplay:10.37,2013-10-05 16:44:00,
2013-10-05 11:49:00,89.8,77.8,30.18,SSE,158,5.8,5.8,68,0.00,BKN,SCT,0.00,WeatherDisplay:10.37,2013-10-05 16:49:00,
2013-10-05 11:54:00,89.2,75.9,30.18,SE,135,6.2,6.2,65,0.00,BKN,SCT,0.00,WeatherDisplay:10.37,2013-10-05 16:54:00,
2013-10-05 11:59:00,89.8,76.9,30.18,East,90,3.5,3.5,66,0.00,BKN,SCT,0.00,WeatherDisplay:10.37,2013-10-05 16:59:00,
2013-10-05 12:04:00,90.7,75.9,30.18,SE,135,6.4,6.4,62,0.00,SCT,,0.00,WeatherDisplay:10.37,2013-10-05 17:04:00,
2013-10-05 12:09:00,91.2,74.4,30.18,NNE,22,6.2,6.2,58,0.00,SCT,,0.00,WeatherDisplay:10.37,2013-10-05 17:09:00,
2013-10-05 12:14:00,89.8,74.0,30.18,ESE,112,4.6,4.6,60,0.00,SCT,,0.00,WeatherDisplay:10.37,2013-10-05 17:14:00,
2013-10-05 12:19:00,88.9,75.6,30.18,East,90,5.8,5.8,65,0.00,SCT,,0.00,WeatherDisplay:10.37,2013-10-05 17:19:00,
2013-10-05 12:24:00,89.6,75.8,30.18,NNW,338,6.0,6.0,64,0.00,SCT,,0.00,WeatherDisplay:10.37,2013-10-05 17:24:00,
2013-10-05 12:29:00,88.9,75.6,30.18,SE,135,3.5,3.5,65,0.00,SCT,,0.00,WeatherDisplay:10.37,2013-10-05 17:29:00,
2013-10-05 12:34:00,89.4,75.6,30.18,East,90,7.6,7.6,64,0.00,SCT,,0.00,WeatherDisplay:10.37,2013-10-05 17:34:00,
2013-10-05 12:39:00,88.5,75.7,30.18,ESE,112,8.1,8.1,66,0.00,SCT,,0.00,WeatherDisplay:10.37,2013-10-05 17:39:00,
2013-10-05 12:44:00,86.9,75.9,30.15,SSW,202,5.8,5.8,70,0.00,SCT,,0.00,WeatherDisplay:10.37,2013-10-05 17:44:00,
2013-10-05 12:49:00,86.2,76.5,30.15,NE,45,4.6,4.6,73,0.00,SCT,,0.00,WeatherDisplay:10.37,2013-10-05 17:49:00,
2013-10-05 12:54:00,85.6,76.8,30.15,ENE,68,2.3,2.4,75,0.00,SCT,,0.00,WeatherDisplay:10.37,2013-10-05 17:54:00,
2013-10-05 12:59:00,85.8,77.0,30.15,SE,135,8.1,8.1,75,0.00,SCT,,0.00,WeatherDisplay:10.37,2013-10-05 17:59:00,
2013-10-05 13:04:00,86.0,76.3,30.15,East,90,6.9,6.9,73,0.00,SCT,,0.00,WeatherDisplay:10.37,2013-10-05 18:04:00,
2013-10-05 13:09:00,88.5,78.8,30.15,East,90,5.8,5.8,73,0.00,SCT,,0.00,WeatherDisplay:10.37,2013-10-05 18:09:00,
2013-10-05 13:14:00,88.7,76.3,30.12,South,180,6.4,6.4,67,0.00,SCT,,0.00,WeatherDisplay:10.37,2013-10-05 18:14:00,
2013-10-05 13:19:00,87.8,75.9,30.12,NE,45,5.8,5.8,68,0.00,SCT,,0.00,WeatherDisplay:10.37,2013-10-05 18:19:00,
2013-10-05 13:24:00,87.3,74.5,30.12,SSE,158,3.6,4.3,66,0.00,SCT,,0.00,WeatherDisplay:10.37,2013-10-05 18:24:00,
2013-10-05 13:29:00,87.3,75.4,30.15,East,90,3.5,3.5,68,0.00,SCT,,0.00,WeatherDisplay:10.37,2013-10-05 18:29:00,
2013-10-05 13:34:00,87.4,75.1,30.15,SSE,158,4.9,4.9,67,0.00,SCT,,0.00,WeatherDisplay:10.37,2013-10-05 18:34:00,
2013-10-05 13:40:00,88.5,73.8,30.15,ENE,68,4.3,4.5,62,0.00,SCT,,0.00,WeatherDisplay:10.37,2013-10-05 18:40:00,
2013-10-05 13:45:00,88.5,73.3,30.15,ESE,112,5.8,5.8,61,0.00,SCT,,0.00,WeatherDisplay:10.37,2013-10-05 18:45:00,
2013-10-05 13:50:00,90.1,75.8,30.15,SE,135,4.6,4.6,63,0.00,SCT,,0.00,WeatherDisplay:10.37,2013-10-05 18:50:00,
2013-10-05 13:55:00,90.7,74.9,30.15,East,90,8.1,8.1,60,0.00,SCT,,0.00,WeatherDisplay:10.37,2013-10-05 18:55:00,
2013-10-05 14:00:00,90.7,75.4,30.15,ESE,112,5.8,5.8,61,0.00,SCT,,0.00,WeatherDisplay:10.37,2013-10-05 19:00:00,
2013-10-05 14:05:00,90.7,74.9,30.15,SE,135,4.6,4.6,60,0.00,SCT,,0.00,WeatherDisplay:10.37,2013-10-05 19:05:00,
2013-10-05 14:10:00,90.1,74.4,30.15,ESE,112,6.9,6.9,60,0.00,SCT,,0.00,WeatherDisplay:10.37,2013-10-05 19:10:00,
2013-10-05 14:15:00,90.1,74.4,30.12,SE,135,5.8,5.8,60,0.00,SCT,,0.00,WeatherDisplay:10.37,2013-10-05 19:15:00,
2013-10-05 14:20:00,90.3,74.0,30.12,South,180,5.8,5.8,59,0.00,SCT,,0.00,WeatherDisplay:10.37,2013-10-05 19:20:00,
2013-10-05 14:25:00,90.3,73.0,30.12,SE,135,3.6,3.8,57,0.00,SCT,,0.00,WeatherDisplay:10.37,2013-10-05 19:25:00,
2013-10-05 14:30:00,89.8,73.5,30.12,South,180,6.0,6.0,59,0.00,SCT,,0.00,WeatherDisplay:10.37,2013-10-05 19:30:00,
2013-10-05 14:35:00,89.6,74.4,30.12,ENE,68,8.1,8.1,61,0.00,SCT,,0.00,WeatherDisplay:10.37,2013-10-05 19:35:00,
2013-10-05 14:40:00,89.8,74.0,30.12,SSE,158,4.6,5.9,60,0.00,SCT,,0.00,WeatherDisplay:10.37,2013-10-05 19:40:00,
2013-10-05 14:45:00,89.4,73.7,30.12,WNW,292,5.8,5.8,60,0.00,SCT,,0.00,WeatherDisplay:10.37,2013-10-05 19:45:00,
2013-10-05 14:50:00,84.0,67.7,30.12,SSW,202,6.9,6.9,58,0.00,SCT,,0.00,WeatherDisplay:10.37,2013-10-05 19:50:00,
2013-10-05 14:55:00,83.3,68.9,30.12,ESE,112,8.1,8.1,62,0.00,SCT,,0.00,WeatherDisplay:10.37,2013-10-05 19:55:00,
2013-10-05 15:00:00,82.8,69.8,30.09,ESE,112,6.9,6.9,65,0.00,SCT,,0.00,WeatherDisplay:10.37,2013-10-05 20:00:00,
2013-10-05 15:05:00,82.4,69.4,30.09,West,270,5.8,5.8,65,0.00,SCT,,0.00,WeatherDisplay:10.37,2013-10-05 20:05:00,
2013-10-05 15:10:00,82.4,69.4,30.09,SSE,158,5.8,5.8,65,0.00,SCT,,0.00,WeatherDisplay:10.37,2013-10-05 20:10:00,
2013-10-05 15:15:00,82.8,69.8,30.09,SSE,158,9.2,9.2,65,0.00,SCT,,0.00,WeatherDisplay:10.37,2013-10-05 20:15:00,
2013-10-05 15:20:00,82.4,69.0,30.09,ESE,112,8.1,8.1,64,0.00,SCT,,0.00,WeatherDisplay:10.37,2013-10-05 20:20:00,
2013-10-05 15:25:00,82.4,69.4,30.09,SSE,158,5.8,5.8,65,0.00,SCT,,0.00,WeatherDisplay:10.37,2013-10-05 20:25:00,
2013-10-05 15:30:00,82.4,70.3,30.09,NE,45,6.9,6.9,67,0.00,SCT,,0.00,WeatherDisplay:10.37,2013-10-05 20:30:00,
2013-10-05 15:35:00,82.2,70.6,30.09,SSE,158,6.2,6.2,68,0.00,SCT,,0.00,WeatherDisplay:10.37,2013-10-05 20:35:00,
2013-10-05 15:40:00,82.2,69.7,30.09,ESE,112,8.1,8.1,66,0.00,SCT,,0.00,WeatherDisplay:10.37,2013-10-05 20:40:00,
2013-10-05 15:45:00,82.0,69.6,30.09,SSE,158,4.6,4.6,66,0.00,SCT,,0.00,WeatherDisplay:10.37,2013-10-05 20:45:00,
2013-10-05 15:50:00,81.9,69.4,30.09,SSE,158,4.6,4.6,66,0.00,SCT,,0.00,WeatherDisplay:10.37,2013-10-05 20:50:00,
2013-10-05 15:55:00,81.7,69.7,30.09,ENE,68,5.8,5.8,67,0.00,SCT,,0.00,WeatherDisplay:10.37,2013-10-05 20:55:00,
2013-10-05 16:00:00,81.5,70.3,30.09,SSW,202,3.5,3.5,69,0.00,SCT,,0.00,WeatherDisplay:10.37,2013-10-05 21:00:00,
2013-10-05 16:05:00,81.5,70.3,30.09,SE,135,6.4,6.4,69,0.00,FEW,SCT,0.00,WeatherDisplay:10.37,2013-10-05 21:05:00,
2013-10-05 16:10:00,81.3,69.3,30.09,East,90,9.2,9.2,67,0.00,FEW,SCT,0.00,WeatherDisplay:10.37,2013-10-05 21:10:00,
2013-10-05 16:15:00,81.3,69.3,30.12,ESE,112,3.5,4.5,67,0.00,FEW,SCT,0.00,WeatherDisplay:10.37,2013-10-05 21:15:00,
2013-10-05 16:20:00,80.8,69.2,30.12,South,180,8.1,8.1,68,0.00,FEW,SCT,0.00,WeatherDisplay:10.37,2013-10-05 21:20:00,
2013-10-05 16:25:00,80.6,69.5,30.12,SE,135,5.8,5.8,69,0.00,FEW,SCT,0.00,WeatherDisplay:10.37,2013-10-05 21:25:00,
2013-10-05 16:30:00,80.8,70.9,30.09,SE,135,6.9,6.9,72,0.00,FEW,SCT,0.00,WeatherDisplay:10.37,2013-10-05 21:30:00,
2013-10-05 16:35:00,80.8,71.3,30.09,SSE,158,5.8,5.8,73,0.00,FEW,SCT,0.00,WeatherDisplay:10.37,2013-10-05 21:35:00,
2013-10-05 16:40:00,80.4,71.4,30.09,ESE,112,5.8,5.8,74,0.00,FEW,SCT,0.00,WeatherDisplay:10.37,2013-10-05 21:40:00,
2013-10-05 16:48:00,80.1,71.0,30.09,NE,45,7.4,7.4,74,0.00,FEW,SCT,0.00,WeatherDisplay:10.37,2013-10-05 21:48:00,
2013-10-05 16:53:00,80.4,71.8,30.09,SSE,158,4.6,4.6,75,0.00,FEW,SCT,0.00,WeatherDisplay:10.37,2013-10-05 21:53:00,
2013-10-05 16:58:00,80.1,71.0,30.09,SSE,158,8.1,8.1,74,0.00,FEW,SCT,0.00,WeatherDisplay:10.37,2013-10-05 21:58:00,
2013-10-05 17:03:00,79.5,71.3,30.09,ENE,68,8.1,8.1,76,0.00,SCT,,0.00,WeatherDisplay:10.37,2013-10-05 22:03:00,
2013-10-05 17:08:00,79.3,71.5,30.09,SSW,202,3.5,3.5,77,0.00,SCT,,0.00,WeatherDisplay:10.37,2013-10-05 22:08:00,
2013-10-05 17:13:00,79.2,71.7,30.09,ESE,112,3.5,3.5,78,0.00,SCT,,0.00,WeatherDisplay:10.37,2013-10-05 22:13:00,
2013-10-05 17:18:00,79.0,71.5,30.09,ENE,68,5.8,5.8,78,0.00,SCT,,0.00,WeatherDisplay:10.37,2013-10-05 22:18:00,
2013-10-05 17:23:00,78.6,71.2,30.09,ESE,112,5.8,5.8,78,0.00,SCT,,0.00,WeatherDisplay:10.37,2013-10-05 22:23:00,
2013-10-05 17:28:00,78.6,71.2,30.09,ESE,112,5.8,5.8,78,0.00,SCT,,0.00,WeatherDisplay:10.37,2013-10-05 22:28:00,
2013-10-05 17:33:00,78.4,70.2,30.09,East,90,5.8,5.8,76,0.00,SCT,,0.00,WeatherDisplay:10.37,2013-10-05 22:33:00,
2013-10-05 17:38:00,78.6,70.8,30.09,SE,135,4.6,4.6,77,0.00,SCT,,0.00,WeatherDisplay:10.37,2013-10-05 22:38:00,
2013-10-05 17:43:00,78.4,71.0,30.06,ESE,112,4.6,4.6,78,0.00,SCT,,0.00,WeatherDisplay:10.37,2013-10-05 22:43:00,
2013-10-05 17:48:00,78.3,70.8,30.06,East,90,4.6,4.6,78,0.00,SCT,,0.00,WeatherDisplay:10.37,2013-10-05 22:48:00,
2013-10-05 17:53:00,77.9,71.2,30.06,SE,135,4.6,4.6,80,0.00,SCT,,0.00,WeatherDisplay:10.37,2013-10-05 22:53:00,
2013-10-05 17:58:00,77.5,71.2,30.09,SE,135,3.5,3.5,81,0.00,SCT,,0.00,WeatherDisplay:10.37,2013-10-05 22:58:00,
2013-10-05 18:03:00,77.4,71.4,30.09,East,90,4.6,4.6,82,0.00,SCT,,0.00,WeatherDisplay:10.37,2013-10-05 23:03:00,
2013-10-05 18:08:00,76.8,71.6,30.09,SSE,158,3.5,3.5,84,0.00,SCT,,0.00,WeatherDisplay:10.37,2013-10-05 23:08:00,
2013-10-05 18:13:00,76.6,71.4,30.09,NNW,338,3.5,3.5,84,0.00,SCT,,0.00,WeatherDisplay:10.37,2013-10-05 23:13:00,
2013-10-05 18:18:00,76.3,71.8,30.09,ESE,112,3.5,3.5,86,0.00,SCT,,0.00,WeatherDisplay:10.37,2013-10-05 23:18:00,
2013-10-05 18:23:00,76.3,71.8,30.09,SSW,202,4.7,4.7,86,0.00,BKN,SCT,0.00,WeatherDisplay:10.37,2013-10-05 23:23:00,
2013-10-05 18:28:00,75.6,71.1,30.09,SE,135,3.5,3.5,86,0.00,BKN,SCT,0.00,WeatherDisplay:10.37,2013-10-05 23:28:00,
2013-10-05 18:33:00,75.0,70.9,30.09,East,90,2.3,2.3,87,0.00,BKN,SCT,0.00,WeatherDisplay:10.37,2013-10-05 23:33:00,
2013-10-05 18:38:00,74.5,70.4,30.09,South,180,3.5,3.5,87,0.00,BKN,SCT,0.00,WeatherDisplay:10.37,2013-10-05 23:38:00,
2013-10-05 18:43:00,74.1,70.0,30.09,West,270,3.5,3.5,87,0.00,BKN,SCT,0.00,WeatherDisplay:10.37,2013-10-05 23:43:00,
2013-10-05 18:48:00,73.8,70.0,30.09,ESE,112,2.4,2.4,88,0.00,BKN,SCT,0.00,WeatherDisplay:10.37,2013-10-05 23:48:00,
2013-10-05 18:53:00,73.4,69.6,30.09,SE,135,1.2,0.0,88,0.00,BKN,SCT,0.00,WeatherDisplay:10.37,2013-10-05 23:53:00,
2013-10-05 18:58:00,73.2,69.5,30.06,ESE,112,2.3,2.3,88,0.00,BKN,SCT,0.00,WeatherDisplay:10.37,2013-10-05 23:58:00,
2013-10-05 19:03:00,72.7,69.2,30.06,West,270,1.2,1.4,89,0.00,BKN,SCT,0.00,WeatherDisplay:10.37,2013-10-06 00:03:00,
2013-10-05 19:08:00,72.5,69.4,30.06,East,90,2.3,2.3,90,0.00,BKN,SCT,0.00,WeatherDisplay:10.37,2013-10-06 00:08:00,
2013-10-05 19:13:00,72.3,69.2,30.06,East,90,1.2,1.2,90,0.00,BKN,SCT,0.00,WeatherDisplay:10.37,2013-10-06 00:13:00,
2013-10-05 19:18:00,72.1,69.4,30.06,ESE,112,2.3,2.3,91,0.00,BKN,SCT,0.00,WeatherDisplay:10.37,2013-10-06 00:18:00,
2013-10-05 19:23:00,72.1,69.4,30.06,SE,135,0.0,0.0,91,0.00,BKN,SCT,0.00,WeatherDisplay:10.37,2013-10-06 00:23:00,
2013-10-05 19:28:00,72.0,69.2,30.09,ESE,112,1.4,1.4,91,0.00,BKN,SCT,0.00,WeatherDisplay:10.37,2013-10-06 00:28:00,
2013-10-05 19:33:00,72.0,69.5,30.09,East,90,0.0,0.0,92,0.00,BKN,SCT,0.00,WeatherDisplay:10.37,2013-10-06 00:33:00,
2013-10-05 19:38:00,72.0,69.5,30.09,ESE,112,2.3,0.0,92,0.00,BKN,SCT,0.00,WeatherDisplay:10.37,2013-10-06 00:38:00,
2013-10-05 19:43:00,71.8,69.3,30.09,East,90,1.2,0.0,92,0.00,BKN,SCT,0.00,WeatherDisplay:10.37,2013-10-06 00:43:00,
2013-10-05 19:48:00,71.8,69.3,30.09,NE,45,1.2,0.0,92,0.00,BKN,SCT,0.00,WeatherDisplay:10.37,2013-10-06 00:48:00,
2013-10-05 19:53:00,71.8,69.3,30.09,SW,225,1.2,0.0,92,0.00,BKN,SCT,0.00,WeatherDisplay:10.37,2013-10-06 00:53:00,
2013-10-05 19:58:00,71.6,69.2,30.09,East,90,0.0,0.0,92,0.00,BKN,SCT,0.00,WeatherDisplay:10.37,2013-10-06 00:58:00,
2013-10-05 20:03:00,71.6,69.2,30.09,ESE,112,1.2,0.0,92,0.00,FEW,SCT,0.00,WeatherDisplay:10.37,2013-10-06 01:03:00,
2013-10-05 20:08:00,71.8,69.3,30.09,ENE,68,1.2,0.0,92,0.00,FEW,SCT,0.00,WeatherDisplay:10.37,2013-10-06 01:08:00,
2013-10-05 20:13:00,71.8,69.3,30.06,East,90,0.0,0.0,92,0.00,FEW,SCT,0.00,WeatherDisplay:10.37,2013-10-06 01:13:00,
2013-10-05 20:18:00,72.0,69.8,30.06,East,90,2.3,2.3,93,0.00,FEW,SCT,0.00,WeatherDisplay:10.37,2013-10-06 01:18:00,
2013-10-05 20:23:00,72.1,70.0,30.06,SSE,158,2.3,2.3,93,0.00,FEW,SCT,0.00,WeatherDisplay:10.37,2013-10-06 01:23:00,
2013-10-05 20:28:00,72.3,70.2,30.09,ENE,68,3.5,3.5,93,0.00,FEW,SCT,0.00,WeatherDisplay:10.37,2013-10-06 01:28:00,
2013-10-05 20:33:00,72.5,70.4,30.09,ESE,112,3.5,3.5,93,0.00,FEW,SCT,0.00,WeatherDisplay:10.37,2013-10-06 01:33:00,
2013-10-05 20:38:00,72.5,70.0,30.09,SSE,158,2.3,0.0,92,0.00,FEW,SCT,0.00,WeatherDisplay:10.37,2013-10-06 01:38:00,
2013-10-05 20:43:00,72.5,69.7,30.09,SE,135,3.5,3.5,91,0.00,FEW,SCT,0.00,WeatherDisplay:10.37,2013-10-06 01:43:00,
2013-10-05 20:49:00,72.5,69.7,30.09,East,90,2.3,2.3,91,0.00,FEW,SCT,0.00,WeatherDisplay:10.37,2013-10-06 01:49:00,
2013-10-05 20:54:00,72.5,69.4,30.09,East,90,0.0,0.0,90,0.00,FEW,SCT,0.00,WeatherDisplay:10.37,2013-10-06 01:54:00,
2013-10-05 20:59:00,72.3,69.2,30.09,East,90,3.5,3.5,90,0.00,FEW,SCT,0.00,WeatherDisplay:10.37,2013-10-06 01:59:00,
2013-10-05 21:04:00,72.3,69.2,30.09,East,90,2.3,2.9,90,0.00,CLR,SCT,0.00,WeatherDisplay:10.37,2013-10-06 02:04:00,
2013-10-05 21:09:00,72.3,68.9,30.09,East,90,2.3,2.3,89,0.00,CLR,SCT,0.00,WeatherDisplay:10.37,2013-10-06 02:09:00,
2013-10-05 21:14:00,72.1,69.0,30.09,SE,135,1.2,0.0,90,0.00,CLR,SCT,0.00,WeatherDisplay:10.37,2013-10-06 02:14:00,
2013-10-05 21:19:00,72.0,68.9,30.09,SE,135,2.0,2.0,90,0.00,CLR,SCT,0.00,WeatherDisplay:10.37,2013-10-06 02:19:00,
2013-10-05 21:24:00,71.8,68.7,30.09,ESE,112,1.2,0.0,90,0.00,CLR,SCT,0.00,WeatherDisplay:10.37,2013-10-06 02:24:00,
2013-10-05 21:29:00,71.8,68.7,30.12,ENE,68,1.2,0.0,90,0.00,CLR,SCT,0.00,WeatherDisplay:10.37,2013-10-06 02:29:00,
2013-10-05 21:34:00,71.4,68.3,30.12,East,90,0.0,0.0,90,0.00,CLR,SCT,0.00,WeatherDisplay:10.37,2013-10-06 02:34:00,
2013-10-05 21:39:00,71.2,68.2,30.12,ENE,68,0.0,0.0,90,0.00,CLR,SCT,0.00,WeatherDisplay:10.37,2013-10-06 02:39:00,
2013-10-05 21:44:00,71.1,68.0,30.09,ENE,68,1.2,0.0,90,0.00,CLR,SCT,0.00,WeatherDisplay:10.37,2013-10-06 02:44:00,
2013-10-05 21:49:00,71.1,68.3,30.09,ENE,68,0.0,0.0,91,0.00,CLR,SCT,0.00,WeatherDisplay:10.37,2013-10-06 02:49:00,
2013-10-05 21:54:00,70.7,67.9,30.09,ENE,68,0.0,0.0,91,0.00,CLR,SCT,0.00,WeatherDisplay:10.37,2013-10-06 02:54:00,
2013-10-05 21:59:00,70.5,67.8,30.09,NE,45,0.0,0.0,91,0.00,CLR,SCT,0.00,WeatherDisplay:10.37,2013-10-06 02:59:00,
2013-10-05 22:04:00,70.3,67.9,30.09,NE,45,0.0,0.0,92,0.00,CLR,SCT,0.00,WeatherDisplay:10.37,2013-10-06 03:04:00,
2013-10-05 22:09:00,70.0,67.9,30.09,NE,45,0.0,0.0,93,0.00,CLR,SCT,0.00,WeatherDisplay:10.37,2013-10-06 03:09:00,
2013-10-05 22:14:00,69.8,67.7,30.09,NE,45,0.0,0.0,93,0.00,CLR,SCT,0.00,WeatherDisplay:10.37,2013-10-06 03:14:00,
2013-10-05 22:19:00,69.6,67.5,30.09,NE,45,0.0,0.0,93,0.00,CLR,SCT,0.00,WeatherDisplay:10.37,2013-10-06 03:19:00,
2013-10-05 22:24:00,69.4,67.6,30.09,NE,45,0.0,0.0,94,0.00,CLR,SCT,0.00,WeatherDisplay:10.37,2013-10-06 03:24:00,
2013-10-05 22:29:00,69.3,67.5,30.12,NE,45,0.0,0.0,94,0.00,CLR,SCT,0.00,WeatherDisplay:10.37,2013-10-06 03:29:00,
2013-10-05 22:34:00,69.1,67.3,30.12,NE,45,0.0,0.0,94,0.00,CLR,SCT,0.00,WeatherDisplay:10.37,2013-10-06 03:34:00,
2013-10-05 22:39:00,68.9,67.1,30.12,NE,45,0.0,0.0,94,0.00,CLR,SCT,0.00,WeatherDisplay:10.37,2013-10-06 03:39:00,
2013-10-05 22:44:00,68.9,67.4,30.12,NE,45,0.0,0.0,95,0.00,CLR,SCT,0.00,WeatherDisplay:10.37,2013-10-06 03:44:00,
2013-10-05 22:49:00,68.7,67.2,30.12,NE,45,0.0,0.0,95,0.00,CLR,SCT,0.00,WeatherDisplay:10.37,2013-10-06 03:49:00,
2013-10-05 22:54:00,68.5,67.1,30.12,ENE,68,0.0,0.0,95,0.00,CLR,SCT,0.00,WeatherDisplay:10.37,2013-10-06 03:54:00,
2013-10-05 22:59:00,68.7,67.2,30.09,East,90,0.0,0.0,95,0.00,CLR,SCT,0.00,WeatherDisplay:10.37,2013-10-06 03:59:00,
2013-10-05 23:01:00,68.7,67.2,30.09,ENE,68,0.0,0.0,95,0.00,CLR,SCT,0.00,WeatherDisplay:10.37,2013-10-06 04:01:00,
2013-10-05 23:02:00,68.7,67.2,30.09,ENE,68,0.0,0.0,95,0.00,SCT,,0.00,WeatherDisplay:10.37,2013-10-06 04:02:00,
2013-10-05 23:07:00,68.7,67.2,30.09,ENE,68,0.0,0.0,95,0.00,SCT,,0.00,WeatherDisplay:10.37,2013-10-06 04:07:00,
2013-10-05 23:12:00,68.7,67.2,30.09,ENE,68,0.0,0.0,95,0.00,SCT,,0.00,WeatherDisplay:10.37,2013-10-06 04:12:00,
2013-10-05 23:17:00,68.7,67.2,30.09,NE,45,0.0,0.0,95,0.00,SCT,,0.00,WeatherDisplay:10.37,2013-10-06 04:17:00,
2013-10-05 23:22:00,68.9,67.7,30.09,ENE,68,1.2,1.2,96,0.00,SCT,,0.00,WeatherDisplay:10.37,2013-10-06 04:22:00,
2013-10-05 23:27:00,69.1,67.9,30.09,ENE,68,1.2,0.0,96,0.00,SCT,,0.00,WeatherDisplay:10.37,2013-10-06 04:27:00,
2013-10-05 23:32:00,69.1,67.9,30.06,ENE,68,0.0,0.0,96,0.00,SCT,,0.00,WeatherDisplay:10.37,2013-10-06 04:32:00,
2013-10-05 23:37:00,69.1,67.9,30.06,ENE,68,0.0,0.0,96,0.00,SCT,,0.00,WeatherDisplay:10.37,2013-10-06 04:37:00,
2013-10-05 23:42:00,69.4,68.2,30.06,ESE,112,1.2,1.2,96,0.00,SCT,,0.00,WeatherDisplay:10.37,2013-10-06 04:42:00,
2013-10-05 23:47:00,69.8,68.3,30.09,ENE,68,0.0,0.0,95,0.00,SCT,,0.00,WeatherDisplay:10.37,2013-10-06 04:47:00,
2013-10-05 23:52:00,69.8,68.3,30.09,ENE,68,0.0,0.0,95,0.00,SCT,,0.00,WeatherDisplay:10.37,2013-10-06 04:52:00,
2013-10-05 23:57:00,70.2,68.7,30.09,NNE,22,1.2,0.0,95,0.00,SCT,,0.00,WeatherDisplay:10.37,2013-10-06 04:57:00,